sensor_id;sensor_type;location;lat;lon;timestamp;P1;durP1;ratioP1;P2;durP2;ratioP2
78207;SDS011;67481;50.244;18.288;2023-12-14T00:02:17;27.40;;;13.85;;
78207;SDS011;67481;50.244;18.288;2023-12-14T00:05:03;26.90;;;13.38;;
78207;SDS011;67481;50.244;18.288;2023-12-14T00:07:50;27.80;;;14.20;;
78207;SDS011;67481;50.244;18.288;2023-12-14T00:10:38;27.10;;;14.02;;
78207;SDS011;67481;50.244;18.288;2023-12-14T00:13:25;27.40;;;13.48;;
78207;SDS011;67481;50.244;18.288;2023-12-14T00:16:11;26.38;;;13.35;;
78207;SDS011;67481;50.244;18.288;2023-12-14T00:18:57;26.80;;;13.23;;
78207;SDS011;67481;50.244;18.288;2023-12-14T00:21:42;28.38;;;13.75;;
78207;SDS011;67481;50.244;18.288;2023-12-14T00:24:28;24.58;;;12.75;;
78207;SDS011;67481;50.244;18.288;2023-12-14T00:27:18;26.95;;;14.20;;
78207;SDS011;67481;50.244;18.288;2023-12-14T00:30:04;25.33;;;13.68;;
78207;SDS011;67481;50.244;18.288;2023-12-14T00:32:50;25.08;;;12.75;;
78207;SDS011;67481;50.244;18.288;2023-12-14T00:35:36;24.48;;;13.50;;
78207;SDS011;67481;50.244;18.288;2023-12-14T00:38:22;24.33;;;12.73;;
78207;SDS011;67481;50.244;18.288;2023-12-14T00:41:08;26.38;;;12.93;;
78207;SDS011;67481;50.244;18.288;2023-12-14T00:43:53;26.58;;;13.07;;
78207;SDS011;67481;50.244;18.288;2023-12-14T00:46:40;30.40;;;14.65;;
78207;SDS011;67481;50.244;18.288;2023-12-14T00:52:13;27.35;;;13.05;;
78207;SDS011;67481;50.244;18.288;2023-12-14T00:54:59;24.42;;;12.63;;
78207;SDS011;67481;50.244;18.288;2023-12-14T00:57:44;26.83;;;13.48;;
78207;SDS011;67481;50.244;18.288;2023-12-14T01:00:29;24.60;;;12.65;;
78207;SDS011;67481;50.244;18.288;2023-12-14T01:03:17;25.40;;;13.27;;
78207;SDS011;67481;50.244;18.288;2023-12-14T01:06:03;24.48;;;12.95;;
78207;SDS011;67481;50.244;18.288;2023-12-14T01:08:50;27.00;;;13.15;;
78207;SDS011;67481;50.244;18.288;2023-12-14T01:11:37;23.88;;;12.88;;
78207;SDS011;67481;50.244;18.288;2023-12-14T01:14:23;25.20;;;13.30;;
78207;SDS011;67481;50.244;18.288;2023-12-14T01:17:10;25.45;;;12.65;;
78207;SDS011;67481;50.244;18.288;2023-12-14T01:19:55;24.60;;;12.57;;
78207;SDS011;67481;50.244;18.288;2023-12-14T01:22:42;23.90;;;12.38;;
78207;SDS011;67481;50.244;18.288;2023-12-14T01:25:27;26.00;;;12.95;;
78207;SDS011;67481;50.244;18.288;2023-12-14T01:28:13;23.98;;;12.32;;
78207;SDS011;67481;50.244;18.288;2023-12-14T01:31:00;25.50;;;12.55;;
78207;SDS011;67481;50.244;18.288;2023-12-14T01:33:45;26.77;;;13.40;;
78207;SDS011;67481;50.244;18.288;2023-12-14T01:36:31;25.00;;;12.07;;
78207;SDS011;67481;50.244;18.288;2023-12-14T01:39:16;22.88;;;12.55;;
78207;SDS011;67481;50.244;18.288;2023-12-14T01:42:02;25.23;;;13.15;;
78207;SDS011;67481;50.244;18.288;2023-12-14T01:44:48;24.88;;;12.15;;
78207;SDS011;67481;50.244;18.288;2023-12-14T01:47:34;24.58;;;12.48;;
78207;SDS011;67481;50.244;18.288;2023-12-14T01:50:21;24.05;;;12.63;;
78207;SDS011;67481;50.244;18.288;2023-12-14T01:53:08;24.02;;;12.38;;
78207;SDS011;67481;50.244;18.288;2023-12-14T01:55:54;24.67;;;12.55;;
78207;SDS011;67481;50.244;18.288;2023-12-14T01:58:40;25.48;;;11.93;;
78207;SDS011;67481;50.244;18.288;2023-12-14T02:01:39;22.80;;;11.90;;
78207;SDS011;67481;50.244;18.288;2023-12-14T02:04:27;23.38;;;12.02;;
78207;SDS011;67481;50.244;18.288;2023-12-14T02:07:13;22.02;;;11.95;;
78207;SDS011;67481;50.244;18.288;2023-12-14T02:10:00;24.67;;;12.45;;
78207;SDS011;67481;50.244;18.288;2023-12-14T02:12:47;22.90;;;11.90;;
78207;SDS011;67481;50.244;18.288;2023-12-14T02:15:33;21.15;;;11.75;;
78207;SDS011;67481;50.244;18.288;2023-12-14T02:18:18;23.75;;;12.32;;
78207;SDS011;67481;50.244;18.288;2023-12-14T02:21:04;21.83;;;11.82;;
78207;SDS011;67481;50.244;18.288;2023-12-14T02:23:51;23.20;;;11.25;;
78207;SDS011;67481;50.244;18.288;2023-12-14T02:26:36;23.45;;;12.00;;
78207;SDS011;67481;50.244;18.288;2023-12-14T02:29:22;24.35;;;11.90;;
78207;SDS011;67481;50.244;18.288;2023-12-14T02:32:08;22.48;;;12.20;;
78207;SDS011;67481;50.244;18.288;2023-12-14T02:34:55;23.17;;;11.68;;
78207;SDS011;67481;50.244;18.288;2023-12-14T02:37:41;23.75;;;12.45;;
78207;SDS011;67481;50.244;18.288;2023-12-14T02:40:26;20.10;;;10.52;;
78207;SDS011;67481;50.244;18.288;2023-12-14T02:43:13;21.55;;;11.52;;
78207;SDS011;67481;50.244;18.288;2023-12-14T02:45:59;21.70;;;11.05;;
78207;SDS011;67481;50.244;18.288;2023-12-14T02:48:48;21.60;;;11.20;;
78207;SDS011;67481;50.244;18.288;2023-12-14T02:51:35;23.33;;;11.82;;
78207;SDS011;67481;50.244;18.288;2023-12-14T02:54:20;24.42;;;12.05;;
78207;SDS011;67481;50.244;18.288;2023-12-14T02:57:06;24.58;;;13.00;;
78207;SDS011;67481;50.244;18.288;2023-12-14T02:59:52;19.30;;;10.27;;
78207;SDS011;67481;50.244;18.288;2023-12-14T03:02:38;21.45;;;12.07;;
78207;SDS011;67481;50.244;18.288;2023-12-14T03:05:23;23.17;;;10.95;;
78207;SDS011;67481;50.244;18.288;2023-12-14T03:08:10;21.05;;;10.80;;
78207;SDS011;67481;50.244;18.288;2023-12-14T03:10:59;22.00;;;10.45;;
78207;SDS011;67481;50.244;18.288;2023-12-14T03:13:45;21.90;;;11.27;;
78207;SDS011;67481;50.244;18.288;2023-12-14T03:16:31;23.20;;;11.48;;
78207;SDS011;67481;50.244;18.288;2023-12-14T03:19:17;21.33;;;10.63;;
78207;SDS011;67481;50.244;18.288;2023-12-14T03:22:03;21.42;;;11.20;;
78207;SDS011;67481;50.244;18.288;2023-12-14T03:24:50;20.20;;;10.55;;
78207;SDS011;67481;50.244;18.288;2023-12-14T03:27:35;22.48;;;11.48;;
78207;SDS011;67481;50.244;18.288;2023-12-14T03:30:20;20.25;;;11.50;;
78207;SDS011;67481;50.244;18.288;2023-12-14T03:33:06;20.83;;;12.10;;
78207;SDS011;67481;50.244;18.288;2023-12-14T03:41:25;22.42;;;10.40;;
78207;SDS011;67481;50.244;18.288;2023-12-14T03:44:12;23.27;;;10.90;;
78207;SDS011;67481;50.244;18.288;2023-12-14T03:46:58;19.63;;;10.65;;
78207;SDS011;67481;50.244;18.288;2023-12-14T03:55:17;22.17;;;10.55;;
78207;SDS011;67481;50.244;18.288;2023-12-14T03:58:02;22.13;;;11.02;;
78207;SDS011;67481;50.244;18.288;2023-12-14T04:00:48;20.73;;;11.10;;
78207;SDS011;67481;50.244;18.288;2023-12-14T04:03:33;20.88;;;10.40;;
78207;SDS011;67481;50.244;18.288;2023-12-14T04:06:19;19.23;;;10.68;;
78207;SDS011;67481;50.244;18.288;2023-12-14T04:09:05;21.13;;;10.68;;
78207;SDS011;67481;50.244;18.288;2023-12-14T04:11:51;21.55;;;10.45;;
78207;SDS011;67481;50.244;18.288;2023-12-14T04:14:38;21.42;;;10.23;;
78207;SDS011;67481;50.244;18.288;2023-12-14T04:17:24;20.63;;;10.15;;
78207;SDS011;67481;50.244;18.288;2023-12-14T04:20:10;21.67;;;10.68;;
78207;SDS011;67481;50.244;18.288;2023-12-14T04:22:55;19.48;;;10.65;;
78207;SDS011;67481;50.244;18.288;2023-12-14T04:25:41;20.50;;;10.32;;
78207;SDS011;67481;50.244;18.288;2023-12-14T04:28:26;19.40;;;10.27;;
78207;SDS011;67481;50.244;18.288;2023-12-14T04:31:12;21.10;;;9.75;;
78207;SDS011;67481;50.244;18.288;2023-12-14T04:33:58;21.13;;;10.88;;
78207;SDS011;67481;50.244;18.288;2023-12-14T04:36:44;19.75;;;9.68;;
78207;SDS011;67481;50.244;18.288;2023-12-14T04:39:30;18.17;;;10.23;;
78207;SDS011;67481;50.244;18.288;2023-12-14T04:42:16;18.10;;;9.52;;
78207;SDS011;67481;50.244;18.288;2023-12-14T04:45:03;19.00;;;10.38;;
78207;SDS011;67481;50.244;18.288;2023-12-14T04:47:50;19.00;;;10.02;;
78207;SDS011;67481;50.244;18.288;2023-12-14T04:50:35;19.33;;;10.80;;
78207;SDS011;67481;50.244;18.288;2023-12-14T04:53:21;18.90;;;9.85;;
78207;SDS011;67481;50.244;18.288;2023-12-14T04:56:10;17.33;;;9.40;;
78207;SDS011;67481;50.244;18.288;2023-12-14T04:58:56;17.98;;;8.98;;
78207;SDS011;67481;50.244;18.288;2023-12-14T05:01:43;21.02;;;10.07;;
78207;SDS011;67481;50.244;18.288;2023-12-14T05:04:29;18.55;;;9.43;;
78207;SDS011;67481;50.244;18.288;2023-12-14T05:07:14;17.60;;;10.35;;
78207;SDS011;67481;50.244;18.288;2023-12-14T05:12:48;18.55;;;9.40;;
78207;SDS011;67481;50.244;18.288;2023-12-14T05:15:35;18.00;;;9.68;;
78207;SDS011;67481;50.244;18.288;2023-12-14T05:18:20;19.55;;;9.57;;
78207;SDS011;67481;50.244;18.288;2023-12-14T05:21:05;19.60;;;9.45;;
78207;SDS011;67481;50.244;18.288;2023-12-14T05:23:51;16.02;;;9.30;;
78207;SDS011;67481;50.244;18.288;2023-12-14T05:26:36;17.70;;;8.88;;
78207;SDS011;67481;50.244;18.288;2023-12-14T05:29:22;16.23;;;8.98;;
78207;SDS011;67481;50.244;18.288;2023-12-14T05:32:09;18.65;;;9.35;;
78207;SDS011;67481;50.244;18.288;2023-12-14T05:34:56;19.15;;;9.68;;
78207;SDS011;67481;50.244;18.288;2023-12-14T05:37:42;18.38;;;9.38;;
78207;SDS011;67481;50.244;18.288;2023-12-14T05:40:28;18.75;;;9.27;;
78207;SDS011;67481;50.244;18.288;2023-12-14T05:46:00;18.42;;;8.93;;
78207;SDS011;67481;50.244;18.288;2023-12-14T05:48:47;18.00;;;8.77;;
78207;SDS011;67481;50.244;18.288;2023-12-14T05:51:33;17.70;;;9.13;;
78207;SDS011;67481;50.244;18.288;2023-12-14T05:54:20;17.92;;;9.05;;
78207;SDS011;67481;50.244;18.288;2023-12-14T05:57:05;18.48;;;9.18;;
78207;SDS011;67481;50.244;18.288;2023-12-14T05:59:51;17.75;;;9.13;;
78207;SDS011;67481;50.244;18.288;2023-12-14T06:02:37;20.08;;;9.18;;
78207;SDS011;67481;50.244;18.288;2023-12-14T06:05:24;17.92;;;8.82;;
78207;SDS011;67481;50.244;18.288;2023-12-14T06:08:10;16.35;;;8.73;;
78207;SDS011;67481;50.244;18.288;2023-12-14T06:10:57;17.80;;;8.95;;
78207;SDS011;67481;50.244;18.288;2023-12-14T06:13:44;19.45;;;9.23;;
78207;SDS011;67481;50.244;18.288;2023-12-14T06:16:30;26.05;;;8.93;;
78207;SDS011;67481;50.244;18.288;2023-12-14T06:19:16;20.27;;;9.10;;
78207;SDS011;67481;50.244;18.288;2023-12-14T06:22:01;23.85;;;10.98;;
78207;SDS011;67481;50.244;18.288;2023-12-14T06:24:47;25.85;;;11.50;;
78207;SDS011;67481;50.244;18.288;2023-12-14T06:27:33;20.08;;;9.88;;
78207;SDS011;67481;50.244;18.288;2023-12-14T06:30:19;25.60;;;11.93;;
78207;SDS011;67481;50.244;18.288;2023-12-14T06:33:05;20.55;;;9.85;;
78207;SDS011;67481;50.244;18.288;2023-12-14T06:35:52;25.33;;;11.20;;
78207;SDS011;67481;50.244;18.288;2023-12-14T06:38:38;27.80;;;11.02;;
78207;SDS011;67481;50.244;18.288;2023-12-14T06:41:26;24.10;;;10.60;;
78207;SDS011;67481;50.244;18.288;2023-12-14T06:44:15;23.00;;;11.10;;
78207;SDS011;67481;50.244;18.288;2023-12-14T06:47:04;24.02;;;10.25;;
78207;SDS011;67481;50.244;18.288;2023-12-14T06:49:49;23.98;;;10.52;;
78207;SDS011;67481;50.244;18.288;2023-12-14T06:52:35;24.38;;;10.30;;
78207;SDS011;67481;50.244;18.288;2023-12-14T06:55:22;21.05;;;10.23;;
78207;SDS011;67481;50.244;18.288;2023-12-14T06:58:08;21.55;;;10.27;;
78207;SDS011;67481;50.244;18.288;2023-12-14T07:00:57;23.92;;;10.13;;
78207;SDS011;67481;50.244;18.288;2023-12-14T07:03:43;25.98;;;9.85;;
78207;SDS011;67481;50.244;18.288;2023-12-14T07:06:29;21.15;;;9.90;;
78207;SDS011;67481;50.244;18.288;2023-12-14T07:09:16;22.17;;;10.05;;
78207;SDS011;67481;50.244;18.288;2023-12-14T07:12:02;21.08;;;10.02;;
78207;SDS011;67481;50.244;18.288;2023-12-14T07:14:48;20.77;;;9.85;;
78207;SDS011;67481;50.244;18.288;2023-12-14T07:17:34;20.13;;;10.35;;
78207;SDS011;67481;50.244;18.288;2023-12-14T07:20:19;20.08;;;9.65;;
78207;SDS011;67481;50.244;18.288;2023-12-14T07:28:37;18.38;;;9.07;;
78207;SDS011;67481;50.244;18.288;2023-12-14T07:31:23;19.52;;;9.52;;
78207;SDS011;67481;50.244;18.288;2023-12-14T07:34:09;16.95;;;8.75;;
78207;SDS011;67481;50.244;18.288;2023-12-14T07:36:55;20.10;;;9.68;;
78207;SDS011;67481;50.244;18.288;2023-12-14T07:39:42;21.73;;;9.75;;
78207;SDS011;67481;50.244;18.288;2023-12-14T07:42:27;19.02;;;8.80;;
78207;SDS011;67481;50.244;18.288;2023-12-14T07:45:14;18.63;;;9.73;;
78207;SDS011;67481;50.244;18.288;2023-12-14T07:48:00;16.75;;;9.18;;
78207;SDS011;67481;50.244;18.288;2023-12-14T07:50:45;18.70;;;9.63;;
78207;SDS011;67481;50.244;18.288;2023-12-14T07:53:33;18.35;;;9.20;;
78207;SDS011;67481;50.244;18.288;2023-12-14T07:56:19;18.33;;;9.68;;
78207;SDS011;67481;50.244;18.288;2023-12-14T07:59:05;18.25;;;9.43;;
78207;SDS011;67481;50.244;18.288;2023-12-14T08:01:52;14.98;;;8.32;;
78207;SDS011;67481;50.244;18.288;2023-12-14T08:04:39;19.13;;;9.20;;
78207;SDS011;67481;50.244;18.288;2023-12-14T08:07:25;19.83;;;9.57;;
78207;SDS011;67481;50.244;18.288;2023-12-14T08:10:14;17.55;;;8.95;;
78207;SDS011;67481;50.244;18.288;2023-12-14T08:13:00;18.25;;;8.95;;
78207;SDS011;67481;50.244;18.288;2023-12-14T08:15:45;16.77;;;8.73;;
78207;SDS011;67481;50.244;18.288;2023-12-14T08:18:31;16.08;;;8.60;;
78207;SDS011;67481;50.244;18.288;2023-12-14T08:21:17;17.73;;;8.80;;
78207;SDS011;67481;50.244;18.288;2023-12-14T08:24:04;16.00;;;8.30;;
78207;SDS011;67481;50.244;18.288;2023-12-14T08:26:50;16.77;;;8.63;;
78207;SDS011;67481;50.244;18.288;2023-12-14T08:29:36;17.92;;;8.68;;
78207;SDS011;67481;50.244;18.288;2023-12-14T08:32:21;16.98;;;8.45;;
78207;SDS011;67481;50.244;18.288;2023-12-14T08:35:07;16.17;;;8.60;;
78207;SDS011;67481;50.244;18.288;2023-12-14T08:37:54;17.15;;;8.75;;
78207;SDS011;67481;50.244;18.288;2023-12-14T08:40:40;17.42;;;8.70;;
78207;SDS011;67481;50.244;18.288;2023-12-14T08:43:25;17.42;;;8.55;;
78207;SDS011;67481;50.244;18.288;2023-12-14T08:46:12;15.88;;;8.25;;
78207;SDS011;67481;50.244;18.288;2023-12-14T08:48:58;15.38;;;8.30;;
78207;SDS011;67481;50.244;18.288;2023-12-14T08:51:44;14.98;;;8.35;;
78207;SDS011;67481;50.244;18.288;2023-12-14T08:54:29;14.27;;;8.00;;
78207;SDS011;67481;50.244;18.288;2023-12-14T08:57:15;16.80;;;9.27;;
78207;SDS011;67481;50.244;18.288;2023-12-14T09:00:01;16.52;;;8.38;;
78207;SDS011;67481;50.244;18.288;2023-12-14T09:02:50;17.85;;;9.30;;
78207;SDS011;67481;50.244;18.288;2023-12-14T09:05:37;15.32;;;8.20;;
78207;SDS011;67481;50.244;18.288;2023-12-14T09:08:27;15.93;;;8.73;;
78207;SDS011;67481;50.244;18.288;2023-12-14T09:11:14;17.15;;;9.38;;
78207;SDS011;67481;50.244;18.288;2023-12-14T09:14:00;21.42;;;9.98;;
78207;SDS011;67481;50.244;18.288;2023-12-14T09:16:45;18.42;;;9.68;;
78207;SDS011;67481;50.244;18.288;2023-12-14T09:19:32;22.48;;;10.88;;
78207;SDS011;67481;50.244;18.288;2023-12-14T09:22:17;21.30;;;11.38;;
78207;SDS011;67481;50.244;18.288;2023-12-14T09:25:03;22.20;;;11.90;;
78207;SDS011;67481;50.244;18.288;2023-12-14T09:27:49;20.88;;;11.05;;
78207;SDS011;67481;50.244;18.288;2023-12-14T09:30:35;24.20;;;12.38;;
78207;SDS011;67481;50.244;18.288;2023-12-14T09:33:20;25.45;;;12.73;;
78207;SDS011;67481;50.244;18.288;2023-12-14T09:36:06;23.10;;;12.23;;
78207;SDS011;67481;50.244;18.288;2023-12-14T09:38:52;26.77;;;13.48;;
78207;SDS011;67481;50.244;18.288;2023-12-14T09:41:38;24.10;;;12.27;;
78207;SDS011;67481;50.244;18.288;2023-12-14T09:44:25;24.55;;;13.65;;
78207;SDS011;67481;50.244;18.288;2023-12-14T09:47:11;26.45;;;12.50;;
78207;SDS011;67481;50.244;18.288;2023-12-14T09:55:31;23.38;;;12.23;;
78207;SDS011;67481;50.244;18.288;2023-12-14T09:58:17;24.15;;;12.73;;
78207;SDS011;67481;50.244;18.288;2023-12-14T10:01:11;25.67;;;13.10;;
78207;SDS011;67481;50.244;18.288;2023-12-14T10:04:10;26.98;;;12.85;;
78207;SDS011;67481;50.244;18.288;2023-12-14T10:06:57;24.75;;;13.57;;
78207;SDS011;67481;50.244;18.288;2023-12-14T10:09:43;27.13;;;13.55;;
78207;SDS011;67481;50.244;18.288;2023-12-14T10:12:30;25.33;;;13.05;;
78207;SDS011;67481;50.244;18.288;2023-12-14T10:15:16;27.25;;;12.95;;
78207;SDS011;67481;50.244;18.288;2023-12-14T10:18:02;24.17;;;12.32;;
78207;SDS011;67481;50.244;18.288;2023-12-14T10:20:48;24.55;;;12.57;;
78207;SDS011;67481;50.244;18.288;2023-12-14T10:23:33;26.42;;;13.45;;
78207;SDS011;67481;50.244;18.288;2023-12-14T10:26:21;25.30;;;13.25;;
78207;SDS011;67481;50.244;18.288;2023-12-14T10:29:08;25.20;;;13.45;;
78207;SDS011;67481;50.244;18.288;2023-12-14T10:31:54;28.15;;;14.20;;
78207;SDS011;67481;50.244;18.288;2023-12-14T10:34:41;28.65;;;13.70;;
78207;SDS011;67481;50.244;18.288;2023-12-14T10:37:27;26.50;;;13.35;;
78207;SDS011;67481;50.244;18.288;2023-12-14T10:40:15;26.80;;;13.70;;
78207;SDS011;67481;50.244;18.288;2023-12-14T10:43:01;25.05;;;13.40;;
78207;SDS011;67481;50.244;18.288;2023-12-14T10:45:50;23.27;;;12.10;;
78207;SDS011;67481;50.244;18.288;2023-12-14T10:48:40;22.25;;;12.25;;
78207;SDS011;67481;50.244;18.288;2023-12-14T10:51:33;21.20;;;11.25;;
78207;SDS011;67481;50.244;18.288;2023-12-14T10:54:21;20.65;;;10.85;;
78207;SDS011;67481;50.244;18.288;2023-12-14T10:57:08;20.45;;;11.15;;
78207;SDS011;67481;50.244;18.288;2023-12-14T10:59:57;21.00;;;11.13;;
78207;SDS011;67481;50.244;18.288;2023-12-14T11:02:47;21.98;;;11.65;;
78207;SDS011;67481;50.244;18.288;2023-12-14T11:05:33;21.55;;;12.05;;
78207;SDS011;67481;50.244;18.288;2023-12-14T11:08:24;22.20;;;11.90;;
78207;SDS011;67481;50.244;18.288;2023-12-14T11:11:10;22.15;;;11.20;;
78207;SDS011;67481;50.244;18.288;2023-12-14T11:13:58;20.48;;;11.23;;
78207;SDS011;67481;50.244;18.288;2023-12-14T11:16:44;19.27;;;10.40;;
78207;SDS011;67481;50.244;18.288;2023-12-14T11:19:29;21.10;;;11.73;;
78207;SDS011;67481;50.244;18.288;2023-12-14T11:22:23;20.77;;;10.93;;
78207;SDS011;67481;50.244;18.288;2023-12-14T11:25:09;21.83;;;11.80;;
78207;SDS011;67481;50.244;18.288;2023-12-14T11:27:56;22.77;;;11.18;;
78207;SDS011;67481;50.244;18.288;2023-12-14T11:30:48;21.83;;;11.43;;
78207;SDS011;67481;50.244;18.288;2023-12-14T11:33:40;22.20;;;12.27;;
78207;SDS011;67481;50.244;18.288;2023-12-14T11:36:29;25.17;;;13.65;;
78207;SDS011;67481;50.244;18.288;2023-12-14T11:39:15;22.90;;;12.63;;
78207;SDS011;67481;50.244;18.288;2023-12-14T11:42:03;29.73;;;14.82;;
78207;SDS011;67481;50.244;18.288;2023-12-14T11:44:50;32.08;;;12.95;;
78207;SDS011;67481;50.244;18.288;2023-12-14T11:47:37;30.30;;;14.00;;
78207;SDS011;67481;50.244;18.288;2023-12-14T11:50:23;30.00;;;14.07;;
78207;SDS011;67481;50.244;18.288;2023-12-14T11:53:09;28.70;;;13.70;;
78207;SDS011;67481;50.244;18.288;2023-12-14T11:55:55;35.03;;;16.27;;
78207;SDS011;67481;50.244;18.288;2023-12-14T11:58:40;35.28;;;13.93;;
78207;SDS011;67481;50.244;18.288;2023-12-14T12:01:27;29.10;;;13.23;;
78207;SDS011;67481;50.244;18.288;2023-12-14T12:04:13;26.98;;;13.10;;
78207;SDS011;67481;50.244;18.288;2023-12-14T12:07:04;28.15;;;12.18;;
78207;SDS011;67481;50.244;18.288;2023-12-14T12:09:52;26.15;;;11.90;;
78207;SDS011;67481;50.244;18.288;2023-12-14T12:12:39;27.33;;;12.10;;
78207;SDS011;67481;50.244;18.288;2023-12-14T12:15:28;28.55;;;13.55;;
78207;SDS011;67481;50.244;18.288;2023-12-14T12:18:15;24.33;;;11.82;;
78207;SDS011;67481;50.244;18.288;2023-12-14T12:21:04;23.02;;;11.43;;
78207;SDS011;67481;50.244;18.288;2023-12-14T12:23:51;26.25;;;11.82;;
78207;SDS011;67481;50.244;18.288;2023-12-14T12:26:37;25.58;;;12.32;;
78207;SDS011;67481;50.244;18.288;2023-12-14T12:29:23;22.98;;;11.98;;
78207;SDS011;67481;50.244;18.288;2023-12-14T12:32:08;26.38;;;12.27;;
78207;SDS011;67481;50.244;18.288;2023-12-14T12:34:54;25.92;;;12.82;;
78207;SDS011;67481;50.244;18.288;2023-12-14T12:37:41;25.58;;;13.50;;
78207;SDS011;67481;50.244;18.288;2023-12-14T12:40:28;24.85;;;12.85;;
78207;SDS011;67481;50.244;18.288;2023-12-14T12:43:16;42.08;;;18.92;;
78207;SDS011;67481;50.244;18.288;2023-12-14T12:46:02;33.70;;;17.17;;
78207;SDS011;67481;50.244;18.288;2023-12-14T12:48:47;34.70;;;16.58;;
78207;SDS011;67481;50.244;18.288;2023-12-14T12:51:34;30.63;;;14.68;;
78207;SDS011;67481;50.244;18.288;2023-12-14T12:54:20;30.27;;;15.00;;
78207;SDS011;67481;50.244;18.288;2023-12-14T12:57:06;26.30;;;14.93;;
78207;SDS011;67481;50.244;18.288;2023-12-14T12:59:52;27.30;;;14.48;;
78207;SDS011;67481;50.244;18.288;2023-12-14T13:02:38;24.08;;;13.55;;
78207;SDS011;67481;50.244;18.288;2023-12-14T13:05:27;25.80;;;13.65;;
78207;SDS011;67481;50.244;18.288;2023-12-14T13:08:14;23.52;;;13.00;;
78207;SDS011;67481;50.244;18.288;2023-12-14T13:11:00;26.90;;;13.20;;
78207;SDS011;67481;50.244;18.288;2023-12-14T13:13:46;25.92;;;12.77;;
78207;SDS011;67481;50.244;18.288;2023-12-14T13:16:31;24.55;;;12.18;;
78207;SDS011;67481;50.244;18.288;2023-12-14T13:19:17;24.42;;;12.30;;
78207;SDS011;67481;50.244;18.288;2023-12-14T13:22:03;24.10;;;12.52;;
78207;SDS011;67481;50.244;18.288;2023-12-14T13:24:50;22.17;;;11.88;;
78207;SDS011;67481;50.244;18.288;2023-12-14T13:27:36;23.20;;;12.93;;
78207;SDS011;67481;50.244;18.288;2023-12-14T13:30:22;24.83;;;12.77;;
78207;SDS011;67481;50.244;18.288;2023-12-14T13:33:08;22.05;;;11.90;;
78207;SDS011;67481;50.244;18.288;2023-12-14T13:35:57;22.88;;;12.45;;
78207;SDS011;67481;50.244;18.288;2023-12-14T13:38:42;22.05;;;12.18;;
78207;SDS011;67481;50.244;18.288;2023-12-14T13:41:27;20.88;;;11.57;;
78207;SDS011;67481;50.244;18.288;2023-12-14T13:44:14;22.20;;;11.85;;
78207;SDS011;67481;50.244;18.288;2023-12-14T13:47:01;21.42;;;11.88;;
78207;SDS011;67481;50.244;18.288;2023-12-14T13:49:47;24.25;;;12.98;;
78207;SDS011;67481;50.244;18.288;2023-12-14T13:52:33;22.73;;;12.43;;
78207;SDS011;67481;50.244;18.288;2023-12-14T13:55:18;24.38;;;12.75;;
78207;SDS011;67481;50.244;18.288;2023-12-14T13:58:04;24.55;;;12.38;;
78207;SDS011;67481;50.244;18.288;2023-12-14T14:00:50;21.38;;;11.15;;
78207;SDS011;67481;50.244;18.288;2023-12-14T14:03:37;21.15;;;13.00;;
78207;SDS011;67481;50.244;18.288;2023-12-14T14:06:23;20.98;;;11.30;;
78207;SDS011;67481;50.244;18.288;2023-12-14T14:09:11;22.17;;;11.52;;
78207;SDS011;67481;50.244;18.288;2023-12-14T14:11:57;19.95;;;11.05;;
78207;SDS011;67481;50.244;18.288;2023-12-14T14:14:44;23.17;;;11.90;;
78207;SDS011;67481;50.244;18.288;2023-12-14T14:17:30;22.00;;;11.45;;
78207;SDS011;67481;50.244;18.288;2023-12-14T14:20:17;21.65;;;12.20;;
78207;SDS011;67481;50.244;18.288;2023-12-14T14:23:03;21.40;;;11.65;;
78207;SDS011;67481;50.244;18.288;2023-12-14T14:25:50;22.15;;;11.52;;
78207;SDS011;67481;50.244;18.288;2023-12-14T14:28:39;22.17;;;11.05;;
78207;SDS011;67481;50.244;18.288;2023-12-14T14:31:25;21.00;;;11.80;;
78207;SDS011;67481;50.244;18.288;2023-12-14T14:34:15;21.75;;;12.13;;
78207;SDS011;67481;50.244;18.288;2023-12-14T14:37:01;23.67;;;12.50;;
78207;SDS011;67481;50.244;18.288;2023-12-14T14:39:47;21.63;;;11.77;;
78207;SDS011;67481;50.244;18.288;2023-12-14T14:42:34;21.65;;;11.73;;
78207;SDS011;67481;50.244;18.288;2023-12-14T14:45:21;21.88;;;11.70;;
78207;SDS011;67481;50.244;18.288;2023-12-14T14:48:07;29.77;;;13.02;;
78207;SDS011;67481;50.244;18.288;2023-12-14T14:50:54;67.05;;;19.80;;
78207;SDS011;67481;50.244;18.288;2023-12-14T14:53:39;47.80;;;16.67;;
78207;SDS011;67481;50.244;18.288;2023-12-14T14:56:28;42.63;;;15.85;;
78207;SDS011;67481;50.244;18.288;2023-12-14T14:59:13;39.47;;;15.77;;
78207;SDS011;67481;50.244;18.288;2023-12-14T15:02:00;31.55;;;14.38;;
78207;SDS011;67481;50.244;18.288;2023-12-14T15:07:33;32.40;;;14.20;;
78207;SDS011;67481;50.244;18.288;2023-12-14T15:10:19;31.60;;;14.85;;
78207;SDS011;67481;50.244;18.288;2023-12-14T15:13:06;30.45;;;14.45;;
78207;SDS011;67481;50.244;18.288;2023-12-14T15:15:56;32.17;;;14.05;;
78207;SDS011;67481;50.244;18.288;2023-12-14T15:18:41;30.83;;;13.55;;
78207;SDS011;67481;50.244;18.288;2023-12-14T15:21:28;27.05;;;13.63;;
78207;SDS011;67481;50.244;18.288;2023-12-14T15:24:13;31.20;;;12.85;;
78207;SDS011;67481;50.244;18.288;2023-12-14T15:26:58;27.02;;;12.73;;
78207;SDS011;67481;50.244;18.288;2023-12-14T15:29:44;27.02;;;12.73;;
78207;SDS011;67481;50.244;18.288;2023-12-14T15:32:30;26.75;;;12.52;;
78207;SDS011;67481;50.244;18.288;2023-12-14T15:35:18;25.98;;;12.70;;
78207;SDS011;67481;50.244;18.288;2023-12-14T15:38:06;29.50;;;13.43;;
78207;SDS011;67481;50.244;18.288;2023-12-14T15:40:52;29.88;;;14.15;;
78207;SDS011;67481;50.244;18.288;2023-12-14T15:43:39;29.73;;;14.07;;
78207;SDS011;67481;50.244;18.288;2023-12-14T15:46:25;31.08;;;14.88;;
78207;SDS011;67481;50.244;18.288;2023-12-14T15:49:11;30.73;;;14.93;;
78207;SDS011;67481;50.244;18.288;2023-12-14T15:51:57;33.30;;;15.38;;
78207;SDS011;67481;50.244;18.288;2023-12-14T15:54:43;33.65;;;16.10;;
78207;SDS011;67481;50.244;18.288;2023-12-14T15:57:28;31.90;;;16.75;;
78207;SDS011;67481;50.244;18.288;2023-12-14T16:00:14;34.25;;;16.25;;
78207;SDS011;67481;50.244;18.288;2023-12-14T16:03:00;29.52;;;15.75;;
78207;SDS011;67481;50.244;18.288;2023-12-14T16:05:46;30.27;;;14.13;;
78207;SDS011;67481;50.244;18.288;2023-12-14T16:08:33;29.90;;;14.73;;
78207;SDS011;67481;50.244;18.288;2023-12-14T16:11:19;28.20;;;14.68;;
78207;SDS011;67481;50.244;18.288;2023-12-14T16:14:05;25.73;;;14.05;;
78207;SDS011;67481;50.244;18.288;2023-12-14T16:16:52;28.40;;;13.60;;
78207;SDS011;67481;50.244;18.288;2023-12-14T16:19:37;28.17;;;13.88;;
78207;SDS011;67481;50.244;18.288;2023-12-14T16:22:23;26.42;;;13.77;;
78207;SDS011;67481;50.244;18.288;2023-12-14T16:25:08;27.00;;;13.70;;
78207;SDS011;67481;50.244;18.288;2023-12-14T16:27:57;29.98;;;13.77;;
78207;SDS011;67481;50.244;18.288;2023-12-14T16:30:42;25.50;;;13.52;;
78207;SDS011;67481;50.244;18.288;2023-12-14T16:33:28;24.90;;;13.50;;
78207;SDS011;67481;50.244;18.288;2023-12-14T16:36:14;27.13;;;13.93;;